Time;durP1;ratioP1;P1;durP2;ratioP2;P2;SDS_P1;SDS_P2;PMS_P1;PMS_P2;Temp;Humidity;BMP_temperature;BMP_pressure;BME280_temperature;BME280_humidity;BME280_pressure;Samples;Min_cycle;Max_cycle;Signal;HPM_P1;HPM_P2
2022/06/03 00:02:40;;;;;;;7.20;4.95;;;10.20;99.90;;;;;;5060290;28;20207;-62
2022/06/03 00:05:46;;;;;;;5.80;4.75;;;10.30;99.90;;;;;;5045160;28;20746;-63
2022/06/03 00:08:41;;;;;;;5.38;4.55;;;10.00;99.90;;;;;;5071225;28;20203;-63
2022/06/03 00:11:21;;;;;;;8.27;4.45;;;10.10;99.90;;;;;;5061527;28;21064;-63
2022/06/03 00:14:03;;;;;;;6.65;4.55;;;10.20;99.90;;;;;;5071149;28;20878;-63
2022/06/03 00:16:39;;;;;;;12.30;4.82;;;10.10;99.90;;;;;;5048482;28;20576;-62
2022/06/03 00:19:29;;;;;;;5.40;4.55;;;10.00;99.90;;;;;;5060081;28;20238;-63
2022/06/03 00:22:16;;;;;;;7.15;4.72;;;10.00;99.90;;;;;;5059578;28;20213;-62
2022/06/03 00:24:59;;;;;;;8.80;5.30;;;9.90;99.90;;;;;;5053308;28;20200;-62
2022/06/03 00:27:46;;;;;;;7.05;5.32;;;9.90;99.90;;;;;;5058448;28;20211;-63
2022/06/03 00:30:28;;;;;;;8.05;4.97;;;9.90;99.90;;;;;;5069374;28;20227;-63
2022/06/03 00:33:14;;;;;;;5.47;4.70;;;10.10;99.90;;;;;;5062284;28;20201;-62
2022/06/03 00:35:53;;;;;;;7.30;4.40;;;9.80;99.90;;;;;;5047659;28;20333;-62
2022/06/03 00:38:36;;;;;;;3.83;3.43;;;9.60;99.90;;;;;;5066670;28;20206;-62
2022/06/03 00:41:19;;;;;;;4.10;3.70;;;9.60;99.90;;;;;;5058115;28;20290;-63
2022/06/03 00:43:56;;;;;;;4.13;3.43;;;9.40;99.90;;;;;;5070896;28;20188;-62
2022/06/03 00:46:40;;;;;;;3.23;2.80;;;9.20;99.90;;;;;;5054763;28;20223;-61
2022/06/03 00:49:23;;;;;;;2.67;2.33;;;9.30;99.90;;;;;;5070360;28;20196;-61
2022/06/03 00:52:11;;;;;;;2.17;1.97;;;9.10;99.90;;;;;;5046499;28;20211;-61
2022/06/03 00:54:52;;;;;;;3.33;2.80;;;9.10;99.90;;;;;;5060236;28;20199;-61
2022/06/03 00:57:49;;;;;;;3.23;2.93;;;9.10;99.90;;;;;;5053946;28;20246;-61
2022/06/03 01:00:23;;;;;;;2.30;1.90;;;9.00;99.90;;;;;;5075093;28;20844;-61
2022/06/03 01:03:10;;;;;;;2.30;2.10;;;9.00;99.90;;;;;;5059105;28;20204;-61
2022/06/03 01:06:02;;;;;;;2.87;2.47;;;8.90;99.90;;;;;;5069905;28;20382;-61
2022/06/03 01:08:44;;;;;;;2.67;2.30;;;8.80;99.90;;;;;;5059407;28;20208;-61
2022/06/03 01:11:29;;;;;;;2.50;2.30;;;8.70;99.90;;;;;;5060068;28;20879;-61
2022/06/03 01:14:08;;;;;;;5.60;2.77;;;8.80;99.90;;;;;;5053314;28;20211;-61
2022/06/03 01:16:57;;;;;;;3.17;2.63;;;8.80;99.90;;;;;;5071548;28;20219;-61
2022/06/03 01:19:55;;;;;;;3.03;2.70;;;8.80;99.90;;;;;;5071892;28;20196;-61
2022/06/03 01:22:50;;;;;;;2.27;2.07;;;8.70;99.90;;;;;;5057416;28;20212;-61
2022/06/03 01:25:46;;;;;;;4.47;2.60;;;8.70;99.90;;;;;;5062632;28;20204;-61
2022/06/03 01:28:34;;;;;;;6.23;2.70;;;8.80;99.90;;;;;;5057990;28;20657;-61
2022/06/03 01:31:25;;;;;;;3.60;2.67;;;8.80;99.90;;;;;;5070636;28;20235;-61
2022/06/03 01:34:10;;;;;;;9.80;3.20;;;8.80;99.90;;;;;;5049426;28;20212;-60
2022/06/03 01:36:50;;;;;;;3.13;2.83;;;8.80;99.90;;;;;;5069806;28;20586;-60
2022/06/03 01:39:49;;;;;;;3.33;3.00;;;8.70;99.90;;;;;;5054896;28;20204;-61
2022/06/03 01:42:54;;;;;;;3.73;2.77;;;8.80;99.90;;;;;;5069152;28;20204;-61
2022/06/03 01:45:55;;;;;;;3.30;2.63;;;8.80;99.90;;;;;;5043704;28;20197;-61
2022/06/03 01:48:40;;;;;;;3.57;3.17;;;8.70;99.90;;;;;;5051307;28;20302;-61
2022/06/03 01:51:27;;;;;;;3.73;3.00;;;8.80;99.90;;;;;;5066768;28;20217;-61
2022/06/03 01:54:40;;;;;;;6.60;2.90;;;8.80;99.90;;;;;;5055012;28;20196;-61
2022/06/03 01:57:28;;;;;;;3.07;2.77;;;8.80;99.90;;;;;;5063933;28;20209;-61
2022/06/03 02:00:30;;;;;;;2.83;2.53;;;8.70;99.90;;;;;;5058975;28;20207;-61
2022/06/03 02:03:20;;;;;;;2.17;1.97;;;8.80;99.90;;;;;;5072720;28;20195;-61
2022/06/03 02:06:12;;;;;;;2.33;2.13;;;8.60;99.90;;;;;;5074318;28;20211;-61
2022/06/03 02:09:09;;;;;;;2.07;1.97;;;8.30;99.90;;;;;;5061873;28;20211;-61
2022/06/03 02:12:10;;;;;;;3.60;1.67;;;8.00;99.90;;;;;;5068112;28;20224;-61
2022/06/03 02:15:13;;;;;;;1.57;1.40;;;8.10;99.90;;;;;;5043664;28;20200;-61
2022/06/03 02:18:01;;;;;;;4.03;1.97;;;8.10;99.90;;;;;;5075754;28;20206;-61
2022/06/03 02:21:03;;;;;;;2.23;2.03;;;8.10;99.90;;;;;;5052910;28;20208;-61
2022/06/03 02:23:59;;;;;;;2.57;2.13;;;8.30;99.90;;;;;;5057048;28;20223;-62
2022/06/03 02:26:55;;;;;;;3.53;2.40;;;8.40;99.90;;;;;;5056404;28;20205;-61
2022/06/03 02:33:07;;;;;;;2.77;2.37;;;8.50;99.90;;;;;;5060618;28;20319;-60
2022/06/03 02:35:58;;;;;;;4.47;3.10;;;8.40;99.90;;;;;;5053403;28;20201;-61
2022/06/03 02:38:40;;;;;;;2.77;2.53;;;8.40;99.90;;;;;;5072094;28;20193;-61
2022/06/03 02:41:47;;;;;;;3.07;2.63;;;8.40;99.90;;;;;;5059669;28;20999;-61
2022/06/03 02:44:36;;;;;;;3.10;2.80;;;8.40;99.90;;;;;;5050086;28;20650;-61
2022/06/03 02:47:38;;;;;;;5.83;2.77;;;10.40;99.90;;;;;;5050901;28;20259;-61
2022/06/03 02:50:49;;;;;;;3.20;2.73;;;8.30;99.90;;;;;;5049007;28;20212;-61
2022/06/03 02:54:02;;;;;;;3.30;2.73;;;8.40;99.90;;;;;;5067329;28;20239;-61
2022/06/03 02:57:08;;;;;;;2.57;2.37;;;8.40;99.90;;;;;;5026993;28;20231;-61
2022/06/03 03:00:13;;;;;;;2.47;2.27;;;8.30;99.90;;;;;;5060665;28;20200;-61
2022/06/03 03:02:56;;;;;;;2.93;2.37;;;8.20;99.90;;;;;;5052665;28;20208;-61
2022/06/03 03:05:50;;;;;;;2.53;2.30;;;8.20;99.90;;;;;;5050767;28;20200;-61
2022/06/03 03:08:43;;;;;;;5.83;2.60;;;8.20;99.90;;;;;;5057091;28;20211;-61
2022/06/03 03:11:28;;;;;;;3.27;2.60;;;8.10;99.90;;;;;;5054564;28;20230;-62
2022/06/03 03:14:40;;;;;;;8.03;3.63;;;8.10;99.90;;;;;;5055174;28;20200;-61
2022/06/03 03:17:33;;;;;;;4.50;3.20;;;8.30;99.90;;;;;;5042390;28;20215;-61
2022/06/03 03:20:34;;;;;;;4.43;3.17;;;8.50;99.90;;;;;;5049873;28;20768;-62
2022/06/03 03:23:42;;;;;;;6.10;3.53;;;8.30;99.90;;;;;;5060163;28;20207;-61
2022/06/03 03:26:18;;;;;;;3.57;2.60;;;8.20;99.90;;;;;;5048308;28;20204;-61
2022/06/03 03:29:15;;;;;;;4.57;3.20;;;8.20;99.90;;;;;;5065445;28;20192;-61
2022/06/03 03:32:08;;;;;;;5.80;3.47;;;8.20;99.90;;;;;;5042985;28;20227;-61
2022/06/03 03:35:09;;;;;;;3.97;2.33;;;6.90;99.90;;;;;;5067257;28;20207;-61
2022/06/03 03:38:21;;;;;;;3.53;2.30;;;8.30;99.90;;;;;;5069535;28;20278;-61
2022/06/03 03:41:30;;;;;;;9.23;2.20;;;9.10;99.90;;;;;;5023313;28;20206;-61
2022/06/03 03:44:40;;;;;;;2.17;1.97;;;8.10;99.90;;;;;;5055824;28;20200;-61
2022/06/03 03:47:59;;;;;;;1.90;1.70;;;8.00;99.90;;;;;;5049766;28;20228;-61
2022/06/03 03:53:54;;;;;;;1.77;1.60;;;7.80;99.90;;;;;;5053704;27;20753;-61
2022/06/03 03:57:02;;;;;;;3.20;1.50;;;9.20;99.90;;;;;;5035586;28;20680;-61
2022/06/03 04:00:14;;;;;;;2.47;1.70;;;7.70;99.90;;;;;;5036596;28;20580;-61
2022/06/03 04:03:07;;;;;;;2.93;2.27;;;8.20;99.90;;;;;;5021308;28;20682;-61
2022/06/03 04:05:59;;;;;;;2.43;2.20;;;8.30;99.90;;;;;;5057190;28;20677;-61
2022/06/03 04:08:51;;;;;;;3.10;2.43;;;8.40;99.90;;;;;;5033212;28;20201;-62
2022/06/03 04:11:51;;;;;;;2.87;2.57;;;8.50;99.90;;;;;;5011771;28;20220;-61
2022/06/03 04:14:54;;;;;;;4.90;2.40;;;8.60;99.90;;;;;;5028171;28;20924;-61
2022/06/03 04:17:50;;;;;;;3.37;2.73;;;8.70;99.90;;;;;;5028903;28;20254;-62
2022/06/03 04:20:34;;;;;;;6.23;3.53;;;8.80;99.90;;;;;;5054674;28;20214;-62
2022/06/03 04:23:30;;;;;;;5.50;3.40;;;8.90;99.90;;;;;;5049446;28;20212;-61
2022/06/03 04:26:27;;;;;;;4.47;3.80;;;10.00;99.90;;;;;;5036495;28;20988;-61
2022/06/03 04:29:39;;;;;;;7.47;3.40;;;8.00;99.90;;;;;;5046596;28;20216;-61
2022/06/03 04:32:41;;;;;;;6.60;3.97;;;9.20;99.90;;;;;;5050761;28;20274;-61
2022/06/03 04:35:45;;;;;;;4.87;3.00;;;9.40;99.90;;;;;;5054301;28;20767;-61
2022/06/03 04:38:53;;;;;;;6.13;3.60;;;9.40;99.90;;;;;;5043817;28;20258;-61
2022/06/03 04:41:50;;;;;;;4.37;3.67;;;9.40;99.90;;;;;;5063371;28;20199;-61
2022/06/03 04:45:11;;;;;;;5.93;4.20;;;9.50;99.90;;;;;;5037284;28;20210;-61
2022/06/03 04:48:11;;;;;;;8.80;3.40;;;9.70;99.90;;;;;;4931146;28;20211;-62
2022/06/03 04:51:20;;;;;;;7.63;3.97;;;9.80;99.90;;;;;;4963598;28;20222;-62
2022/06/03 04:54:32;;;;;;;11.03;4.17;;;9.70;99.90;;;;;;5035933;28;20227;-61
2022/06/03 04:57:35;;;;;;;5.47;3.73;;;10.00;99.90;;;;;;5034756;28;20216;-62
2022/06/03 05:00:19;;;;;;;4.80;3.40;;;10.00;99.90;;;;;;5041218;28;20240;-62
2022/06/03 05:03:27;;;;;;;7.00;3.50;;;9.90;99.90;;;;;;5039797;28;20717;-61
2022/06/03 05:06:38;;;;;;;4.97;3.57;;;10.10;99.90;;;;;;5030007;28;20221;-62
2022/06/03 05:09:44;;;;;;;5.45;3.67;;;10.20;99.90;;;;;;5027014;28;20201;-62
2022/06/03 05:12:47;;;;;;;5.70;3.90;;;10.50;99.90;;;;;;5032469;28;20225;-62
2022/06/03 05:15:43;;;;;;;4.73;3.90;;;10.50;99.90;;;;;;5016234;28;20701;-61
2022/06/03 05:18:45;;;;;;;8.53;4.53;;;10.50;99.90;;;;;;5019011;28;20212;-62
2022/06/03 05:21:47;;;;;;;10.23;4.47;;;10.60;99.90;;;;;;5022774;28;20208;-61
2022/06/03 05:24:46;;;;;;;8.32;4.75;;;10.80;99.90;;;;;;5019789;28;20212;-62
2022/06/03 05:27:45;;;;;;;6.93;4.70;;;10.90;99.90;;;;;;5034645;28;20189;-62
2022/06/03 05:30:42;;;;;;;6.95;4.22;;;11.00;99.90;;;;;;5017654;28;20607;-61
2022/06/03 05:33:27;;;;;;;9.50;4.85;;;11.00;99.90;;;;;;5025265;28;20220;-62
2022/06/03 05:36:32;;;;;;;13.75;4.93;;;11.20;99.90;;;;;;5029791;28;20212;-62
2022/06/03 05:39:35;;;;;;;6.88;4.72;;;11.30;99.90;;;;;;5010382;28;20225;-62
2022/06/03 05:42:38;;;;;;;5.72;4.18;;;11.40;99.90;;;;;;5052880;28;20570;-62
2022/06/03 05:45:34;;;;;;;7.53;4.82;;;11.50;99.90;;;;;;5010898;28;20201;-62
2022/06/03 05:48:07;;;;;;;7.63;4.82;;;11.50;99.90;;;;;;5032116;28;20204;-62
2022/06/03 05:50:43;;;;;;;12.52;5.93;;;11.70;99.90;;;;;;5025581;28;20204;-62
2022/06/03 05:53:22;;;;;;;10.73;5.47;;;11.80;99.90;;;;;;5025727;28;20592;-62
2022/06/03 05:56:02;;;;;;;9.68;5.65;;;12.10;99.90;;;;;;5015771;28;20590;-61
2022/06/03 05:58:44;;;;;;;8.05;5.82;;;12.20;99.90;;;;;;5029923;28;20411;-62
2022/06/03 06:01:41;;;;;;;8.60;5.78;;;12.30;99.90;;;;;;5017318;28;20903;-62
2022/06/03 06:04:20;;;;;;;8.32;5.90;;;12.30;99.90;;;;;;5010746;28;20309;-63
2022/06/03 06:06:57;;;;;;;11.98;5.72;;;12.50;99.90;;;;;;5021648;28;20657;-62
2022/06/03 06:09:42;;;;;;;7.10;5.18;;;12.50;99.90;;;;;;5028890;28;20521;-61
2022/06/03 06:12:25;;;;;;;6.97;4.82;;;12.50;99.90;;;;;;5030521;28;20323;-62
2022/06/03 06:15:27;;;;;;;12.85;5.47;;;12.50;99.90;;;;;;5021589;28;20205;-63
2022/06/03 06:18:04;;;;;;;10.30;5.50;;;12.60;99.90;;;;;;5010533;28;20204;-63
2022/06/03 06:20:44;;;;;;;11.35;5.15;;;12.60;99.90;;;;;;5035531;28;20686;-62
2022/06/03 06:23:17;;;;;;;6.82;5.10;;;12.70;99.90;;;;;;5031862;28;20417;-61
2022/06/03 06:26:05;;;;;;;8.30;5.35;;;12.70;99.90;;;;;;5024478;28;20247;-61
2022/06/03 06:28:50;;;;;;;5.57;4.97;;;12.70;99.90;;;;;;5046063;28;20207;-62
2022/06/03 06:31:38;;;;;;;11.63;5.05;;;12.80;99.90;;;;;;5028615;28;21013;-62
2022/06/03 06:34:24;;;;;;;8.90;5.63;;;12.80;99.90;;;;;;5027960;28;20213;-62
2022/06/03 06:37:27;;;;;;;8.13;4.53;;;12.80;99.90;;;;;;5024794;28;20206;-63
2022/06/03 06:40:09;;;;;;;7.32;4.47;;;13.20;99.90;;;;;;5003822;28;20216;-63
2022/06/03 06:42:48;;;;;;;5.47;4.13;;;13.00;99.90;;;;;;5022006;28;20213;-62
2022/06/03 06:45:37;;;;;;;6.57;4.20;;;13.00;99.90;;;;;;5043627;28;20220;-62
2022/06/03 06:48:15;;;;;;;6.13;4.45;;;13.10;99.90;;;;;;5012512;28;20440;-62
2022/06/03 06:50:49;;;;;;;5.68;4.60;;;13.10;99.90;;;;;;5026347;28;20537;-62
2022/06/03 06:53:21;;;;;;;7.38;4.10;;;13.20;99.90;;;;;;5033643;28;20224;-62
2022/06/03 06:55:56;;;;;;;6.82;4.68;;;13.20;99.90;;;;;;5022769;28;20481;-62
2022/06/03 06:58:42;;;;;;;6.53;4.10;;;13.20;99.90;;;;;;5018266;28;20200;-61
2022/06/03 07:01:13;;;;;;;6.70;4.40;;;13.40;99.90;;;;;;5024195;28;20208;-62
2022/06/03 07:03:50;;;;;;;5.82;3.47;;;12.10;99.90;;;;;;5029845;28;20213;-62
2022/06/03 07:06:26;;;;;;;4.72;3.17;;;13.30;99.90;;;;;;5014190;28;20216;-62
2022/06/03 07:08:59;;;;;;;3.30;2.90;;;13.30;99.90;;;;;;5046900;28;20551;-62
2022/06/03 07:11:31;;;;;;;5.78;3.10;;;13.30;99.90;;;;;;5016900;28;25756;-62
2022/06/03 07:14:04;;;;;;;5.22;2.63;;;13.40;99.90;;;;;;5035463;28;20229;-62
2022/06/03 07:22:22;;;;;;;4.60;3.50;;;13.50;99.90;;;;;;5025524;28;20219;-62
2022/06/03 07:24:58;;;;;;;4.32;2.83;;;13.60;99.90;;;;;;5027577;28;20212;-62
2022/06/03 07:27:29;;;;;;;4.95;3.42;;;13.70;99.90;;;;;;5007701;28;20201;-62
2022/06/03 07:30:03;;;;;;;4.70;3.00;;;13.80;99.90;;;;;;5043262;28;20197;-62
2022/06/03 07:32:39;;;;;;;4.75;2.42;;;14.00;99.90;;;;;;5002450;28;20221;-62
2022/06/03 07:35:13;;;;;;;4.88;2.67;;;13.70;99.90;;;;;;5032884;28;20204;-62
2022/06/03 07:37:53;;;;;;;3.80;2.63;;;13.90;99.90;;;;;;5012373;28;20209;-62
2022/06/03 07:40:24;;;;;;;2.88;2.20;;;13.80;99.90;;;;;;5035175;28;20197;-62
2022/06/03 07:42:58;;;;;;;2.70;2.40;;;13.90;99.90;;;;;;4992980;28;20256;-62
2022/06/03 07:45:36;;;;;;;2.75;2.30;;;14.00;99.90;;;;;;5036113;28;20242;-62
2022/06/03 07:48:06;;;;;;;5.40;1.98;;;13.90;99.90;;;;;;5025708;28;20384;-64
2022/06/03 07:50:43;;;;;;;4.55;2.28;;;14.00;99.90;;;;;;5006803;28;20280;-63
2022/06/03 07:53:16;;;;;;;2.28;1.98;;;14.10;99.90;;;;;;5024586;28;20596;-62
2022/06/03 07:55:43;;;;;;;4.93;2.00;;;14.10;99.90;;;;;;5023161;28;20216;-62
2022/06/03 07:58:18;;;;;;;5.25;1.67;;;14.20;99.90;;;;;;5010792;28;20247;-62
2022/06/03 08:00:45;;;;;;;5.32;2.15;;;14.20;99.90;;;;;;5040104;28;20204;-62
2022/06/03 08:03:17;;;;;;;2.92;1.92;;;11.40;99.90;;;;;;5045193;28;20236;-62
2022/06/03 08:05:47;;;;;;;3.30;1.85;;;14.30;99.90;;;;;;5007546;28;20230;-62
2022/06/03 08:11:05;;;;;;;2.33;1.50;;;14.40;99.90;;;;;;5018471;28;20561;-62
2022/06/03 08:13:46;;;;;;;2.33;1.60;;;14.40;99.90;;;;;;5009682;28;21213;-62
2022/06/03 08:16:18;;;;;;;2.40;1.83;;;14.50;99.90;;;;;;5020129;28;20212;-62
2022/06/03 08:18:47;;;;;;;2.50;1.95;;;14.90;99.90;;;;;;5034565;28;20193;-62
2022/06/03 08:21:20;;;;;;;4.45;2.15;;;14.60;99.90;;;;;;5018153;28;20200;-62
2022/06/03 08:23:47;;;;;;;3.05;1.83;;;14.60;99.90;;;;;;5030559;28;20326;-62
2022/06/03 08:26:17;;;;;;;3.47;2.03;;;14.70;99.90;;;;;;5012231;28;20575;-62
2022/06/03 08:28:47;;;;;;;4.55;1.90;;;14.60;99.90;;;;;;5018587;28;20674;-62
2022/06/03 08:31:14;;;;;;;3.40;1.90;;;14.60;99.90;;;;;;5004721;28;20201;-62
2022/06/03 08:33:45;;;;;;;6.32;1.80;;;14.80;99.90;;;;;;5017690;28;22324;-62
2022/06/03 08:36:16;;;;;;;3.45;2.08;;;14.90;99.90;;;;;;5015264;28;20296;-62
2022/06/03 08:38:48;;;;;;;1.50;1.40;;;15.00;99.90;;;;;;5036956;28;20205;-62
2022/06/03 08:41:34;;;;;;;7.60;2.70;;;14.90;99.90;;;;;;5007957;28;20780;-63
2022/06/03 08:44:14;;;;;;;2.97;2.25;;;14.90;99.90;;;;;;5032827;28;20193;-62
2022/06/03 08:46:52;;;;;;;1.88;1.73;;;14.90;99.90;;;;;;5011238;28;20211;-62
2022/06/03 08:49:23;;;;;;;2.28;2.05;;;14.90;99.90;;;;;;5024544;28;20315;-62
2022/06/03 08:51:54;;;;;;;3.13;2.00;;;15.00;99.90;;;;;;5009555;28;20224;-62
2022/06/03 08:54:27;;;;;;;4.13;2.10;;;15.10;99.90;;;;;;5033319;28;20667;-62
2022/06/03 08:56:57;;;;;;;2.95;1.95;;;14.10;99.90;;;;;;5015372;28;20735;-62
2022/06/03 08:59:32;;;;;;;2.95;1.90;;;15.10;99.90;;;;;;5038568;28;20197;-62
2022/06/03 09:02:05;;;;;;;1.98;1.77;;;15.20;99.90;;;;;;5030612;28;20212;-62
2022/06/03 09:04:37;;;;;;;3.38;1.77;;;15.30;99.90;;;;;;5027261;28;20808;-62
2022/06/03 09:07:11;;;;;;;5.75;2.08;;;15.50;99.90;;;;;;5022632;28;20217;-62
2022/06/03 09:09:45;;;;;;;2.63;1.70;;;15.40;99.90;;;;;;5008358;28;20697;-62
2022/06/03 09:12:15;;;;;;;2.13;1.92;;;15.80;99.90;;;;;;5020133;28;20447;-62
2022/06/03 09:14:44;;;;;;;2.38;1.80;;;15.50;99.90;;;;;;5029186;28;20228;-62
2022/06/03 09:17:27;;;;;;;3.10;2.00;;;15.70;99.90;;;;;;5012062;28;20256;-62
2022/06/03 09:19:56;;;;;;;5.10;2.03;;;15.80;99.90;;;;;;5038813;28;20205;-62
2022/06/03 09:22:28;;;;;;;2.70;1.80;;;15.40;99.90;;;;;;5019588;28;20224;-62
2022/06/03 09:24:57;;;;;;;2.92;1.95;;;15.90;99.90;;;;;;5030785;28;20200;-62
2022/06/03 09:27:25;;;;;;;4.22;2.17;;;16.10;99.90;;;;;;5015777;28;21088;-62
2022/06/03 09:29:56;;;;;;;4.32;1.80;;;16.10;99.90;;;;;;5038421;28;20196;-62
2022/06/03 09:32:25;;;;;;;3.67;2.00;;;16.30;99.90;;;;;;5022076;28;20972;-62
2022/06/03 09:34:56;;;;;;;2.10;1.90;;;16.30;99.90;;;;;;5032593;28;20228;-62
2022/06/03 09:37:28;;;;;;;3.40;1.88;;;16.30;99.90;;;;;;5021484;28;20708;-63
2022/06/03 09:39:57;;;;;;;3.47;1.90;;;16.20;99.90;;;;;;5041543;28;20216;-62
2022/06/03 09:42:26;;;;;;;3.55;1.65;;;16.40;99.90;;;;;;5025008;28;20440;-62
2022/06/03 09:44:54;;;;;;;2.38;1.90;;;16.30;99.90;;;;;;5033513;28;20204;-63
2022/06/03 09:47:23;;;;;;;4.28;1.70;;;16.30;99.90;;;;;;5008459;28;21294;-62
2022/06/03 09:49:52;;;;;;;5.28;2.10;;;16.40;99.90;;;;;;5030048;28;20267;-62
2022/06/03 09:52:20;;;;;;;6.95;2.25;;;;;;;;;;5026067;28;20757;-62
2022/06/03 09:54:49;;;;;;;3.38;1.95;;;16.60;99.90;;;;;;5039006;28;20256;-62
2022/06/03 09:57:22;;;;;;;2.30;1.70;;;16.80;99.90;;;;;;5028499;28;20200;-62
2022/06/03 10:00:03;;;;;;;2.10;1.90;;;16.90;99.90;;;;;;5019315;28;20347;-63
2022/06/03 10:02:32;;;;;;;5.63;1.92;;;16.90;99.90;;;;;;5018118;28;24794;-63
2022/06/03 10:05:02;;;;;;;4.20;1.63;;;16.90;99.90;;;;;;5004774;28;21051;-62
2022/06/03 10:07:29;;;;;;;2.95;1.50;;;17.00;99.90;;;;;;5045990;28;20185;-62
2022/06/03 10:12:58;;;;;;;1.73;1.50;;;17.20;99.90;;;;;;4972188;28;20221;-63
2022/06/03 10:15:40;;;;;;;1.38;1.27;;;17.30;99.90;;;;;;4989807;28;20275;-63
2022/06/03 10:18:19;;;;;;;3.05;1.48;;;17.30;99.90;;;;;;5010041;28;20205;-63
2022/06/03 10:20:47;;;;;;;2.63;1.48;;;17.30;99.90;;;;;;5018908;28;20223;-62
2022/06/03 10:23:14;;;;;;;2.28;1.27;;;17.50;99.90;;;;;;5041076;28;20228;-63
2022/06/03 10:25:47;;;;;;;3.10;1.55;;;17.30;99.90;;;;;;5026139;28;20248;-63
2022/06/03 10:28:15;;;;;;;1.60;1.50;;;17.40;99.90;;;;;;5029293;28;20208;-63
2022/06/03 10:30:43;;;;;;;1.95;1.70;;;17.50;99.90;;;;;;5025891;28;20196;-62
2022/06/03 10:33:17;;;;;;;2.35;1.30;;;17.60;99.90;;;;;;5029930;28;20866;-62
2022/06/03 10:35:43;;;;;;;2.45;1.58;;;17.50;99.90;;;;;;5012499;28;20208;-62
2022/06/03 10:38:10;;;;;;;1.75;1.23;;;17.60;99.90;;;;;;5035966;28;20231;-63
2022/06/03 10:40:43;;;;;;;2.25;1.92;;;17.70;99.90;;;;;;5028571;28;20481;-63
2022/06/03 10:43:12;;;;;;;2.75;1.58;;;17.70;99.90;;;;;;5030772;28;20200;-63
2022/06/03 10:45:40;;;;;;;1.83;1.40;;;17.90;99.90;;;;;;5024096;28;20225;-63
2022/06/03 10:48:22;;;;;;;1.63;1.27;;;17.80;99.90;;;;;;5023264;28;20383;-63
2022/06/03 10:50:48;;;;;;;1.50;1.30;;;17.90;99.90;;;;;;5017176;28;20985;-63
2022/06/03 11:01:52;;;;;;;2.92;1.35;;;18.20;99.90;;;;;;5005778;28;21619;-63
2022/06/03 11:04:28;;;;;;;1.30;1.20;;;17.80;99.90;;;;;;5016028;28;20708;-63
2022/06/03 11:06:58;;;;;;;1.30;1.20;;;18.20;99.90;;;;;;5026037;28;20593;-63
2022/06/03 11:09:26;;;;;;;1.98;1.20;;;18.40;99.90;;;;;;5014684;28;20220;-63
2022/06/03 11:11:58;;;;;;;1.42;1.33;;;18.40;99.90;;;;;;5017067;28;20224;-63
2022/06/03 11:14:35;;;;;;;2.58;1.63;;;18.30;99.90;;;;;;5028998;28;20242;-64
2022/06/03 11:17:06;;;;;;;3.38;1.70;;;18.30;99.90;;;;;;5015538;28;20221;-63
2022/06/03 11:19:35;;;;;;;1.67;1.50;;;17.60;99.90;;;;;;4997131;28;21122;-64
2022/06/03 11:22:23;;;;;;;3.40;1.40;;;18.30;99.90;;;;;;5031432;28;20593;-63
2022/06/03 11:25:03;;;;;;;1.42;1.33;;;18.20;99.90;;;;;;5036975;28;20235;-63
2022/06/03 11:27:40;;;;;;;1.55;1.42;;;20.20;99.90;;;;;;5003824;28;20208;-63
2022/06/03 11:30:14;;;;;;;2.40;1.40;;;18.30;99.90;;;;;;5027321;28;20200;-63
2022/06/03 11:32:45;;;;;;;1.30;1.20;;;18.30;99.90;;;;;;5002266;28;20315;-63
2022/06/03 11:35:21;;;;;;;2.75;1.20;;;18.20;99.90;;;;;;4998689;28;20224;-63
2022/06/03 11:37:52;;;;;;;2.25;1.38;;;18.00;99.90;;;;;;5012136;28;20658;-64
2022/06/03 11:40:22;;;;;;;1.20;1.10;;;18.10;99.90;;;;;;5018784;28;20314;-63
2022/06/03 11:42:56;;;;;;;6.18;1.65;;;18.20;99.90;;;;;;5003617;28;20369;-63
2022/06/03 11:45:37;;;;;;;1.40;1.30;;;18.40;99.90;;;;;;5026610;28;20255;-64
2022/06/03 11:48:08;;;;;;;4.03;1.30;;;18.20;99.90;;;;;;5012062;28;20227;-64
2022/06/03 11:50:36;;;;;;;1.75;1.30;;;18.20;99.90;;;;;;5004268;28;20231;-64
2022/06/03 11:53:04;;;;;;;4.55;1.40;;;18.20;99.90;;;;;;5021449;28;20606;-64
2022/06/03 11:55:33;;;;;;;3.88;1.30;;;18.30;99.90;;;;;;5032478;28;20237;-63
2022/06/03 11:58:05;;;;;;;1.45;1.17;;;18.30;99.90;;;;;;5016010;28;20217;-62
2022/06/03 12:00:37;;;;;;;2.03;1.23;;;18.30;99.90;;;;;;5022140;22;20236;-63
2022/06/03 12:03:18;;;;;;;3.60;1.40;;;18.40;99.90;;;;;;5002666;28;21037;-62
2022/06/03 12:05:51;;;;;;;1.00;1.00;;;18.50;99.90;;;;;;4995407;28;20223;-63
2022/06/03 12:08:22;;;;;;;1.33;1.17;;;18.50;99.90;;;;;;5007763;28;20208;-63
2022/06/03 12:10:55;;;;;;;1.40;1.13;;;21.70;99.90;;;;;;5017715;28;20225;-63
2022/06/03 12:13:27;;;;;;;1.45;1.20;;;18.60;99.90;;;;;;5009500;28;21069;-62
2022/06/03 12:16:11;;;;;;;3.35;1.00;;;18.70;99.90;;;;;;5026399;28;20246;-63
2022/06/03 12:19:02;;;;;;;2.55;1.25;;;18.30;99.90;;;;;;5013244;28;20215;-63
2022/06/03 12:21:58;;;;;;;1.23;1.13;;;18.70;99.90;;;;;;5012850;28;20231;-62
2022/06/03 12:24:41;;;;;;;2.38;1.38;;;18.70;99.90;;;;;;5028079;28;20209;-63
2022/06/03 12:27:16;;;;;;;3.28;1.23;;;18.70;99.90;;;;;;5023428;28;20872;-62
2022/06/03 12:29:51;;;;;;;2.03;1.10;;;18.80;99.90;;;;;;5016685;28;20212;-62
2022/06/03 12:32:27;;;;;;;1.48;1.20;;;18.70;99.90;;;;;;5031835;28;20200;-63
2022/06/03 12:35:41;;;;;;;1.00;1.00;;;18.80;99.90;;;;;;5017842;28;20237;-63
2022/06/03 12:38:43;;;;;;;1.48;1.20;;;19.60;99.90;;;;;;4949697;28;20203;-64
2022/06/03 12:41:10;;;;;;;1.02;1.02;;;19.20;99.90;;;;;;5023783;28;20281;-64
2022/06/03 12:44:00;;;;;;;2.10;1.40;;;18.80;99.90;;;;;;5025965;28;20201;-63
2022/06/03 12:46:40;;;;;;;3.38;1.23;;;18.80;99.90;;;;;;5027267;28;20221;-63
2022/06/03 12:49:19;;;;;;;3.00;1.50;;;18.70;99.90;;;;;;5029317;28;20693;-63
2022/06/03 12:52:05;;;;;;;3.30;1.20;;;18.80;99.90;;;;;;5017124;28;20286;-63
2022/06/03 12:54:34;;;;;;;1.08;1.08;;;18.90;99.90;;;;;;5009738;28;20612;-63
2022/06/03 12:57:07;;;;;;;2.05;1.00;;;19.00;99.90;;;;;;5036858;28;20288;-63
2022/06/03 12:59:45;;;;;;;2.03;1.30;;;19.10;99.90;;;;;;5019628;28;20236;-63
2022/06/03 13:02:18;;;;;;;2.63;1.17;;;19.10;99.90;;;;;;5032435;28;20255;-63
2022/06/03 13:05:09;;;;;;;1.20;1.17;;;19.10;99.90;;;;;;5022515;28;20229;-63
2022/06/03 13:07:41;;;;;;;1.85;1.10;;;19.10;99.90;;;;;;5028156;28;20227;-63
2022/06/03 13:10:28;;;;;;;1.83;1.27;;;19.10;99.90;;;;;;5001141;28;20243;-63
2022/06/03 13:13:17;;;;;;;1.40;1.20;;;19.10;99.90;;;;;;5036940;28;20311;-63
2022/06/03 13:15:50;;;;;;;1.20;1.10;;;19.10;99.90;;;;;;5024938;28;20235;-63
2022/06/03 13:18:40;;;;;;;0.90;0.90;;;19.10;99.90;;;;;;5002672;28;21080;-63
2022/06/03 13:21:21;;;;;;;1.30;1.15;;;19.10;99.90;;;;;;5028140;28;20259;-63
2022/06/03 13:23:57;;;;;;;1.17;1.00;;;19.10;99.90;;;;;;5018244;28;20615;-63
2022/06/03 13:26:48;;;;;;;2.42;1.23;;;19.50;99.90;;;;;;5022408;28;20820;-63
2022/06/03 13:29:56;;;;;;;1.92;1.17;;;19.20;99.90;;;;;;5021857;28;20392;-62
2022/06/03 13:32:40;;;;;;;2.85;1.30;;;19.40;99.90;;;;;;5011007;28;20388;-63
2022/06/03 13:35:09;;;;;;;0.98;0.98;;;19.10;99.90;;;;;;5017638;28;20268;-62
2022/06/03 13:37:49;;;;;;;1.63;1.17;;;19.20;99.90;;;;;;5023582;28;20209;-63
2022/06/03 13:40:35;;;;;;;2.00;1.27;;;19.30;99.90;;;;;;5009230;28;20205;-63
2022/06/03 13:43:22;;;;;;;1.27;1.17;;;19.40;99.90;;;;;;5037509;28;20215;-62
2022/06/03 13:46:02;;;;;;;1.73;1.13;;;19.40;99.90;;;;;;5030398;28;20248;-63
2022/06/03 13:49:07;;;;;;;1.48;1.38;;;19.60;99.90;;;;;;5032704;28;20285;-63
2022/06/03 13:51:53;;;;;;;2.15;1.35;;;19.50;99.90;;;;;;4965992;28;20207;-63
2022/06/03 13:54:30;;;;;;;1.67;1.35;;;19.50;99.90;;;;;;4962351;28;20226;-63
2022/06/03 13:57:08;;;;;;;1.88;1.30;;;19.40;99.90;;;;;;5005676;28;20209;-63
2022/06/03 13:59:40;;;;;;;2.58;1.10;;;19.30;99.90;;;;;;5031762;28;20243;-64
2022/06/03 14:02:18;;;;;;;1.90;1.23;;;19.30;99.90;;;;;;5027647;28;20235;-63
2022/06/03 14:04:56;;;;;;;1.17;1.10;;;19.50;99.90;;;;;;5024303;28;20785;-63
2022/06/03 14:07:28;;;;;;;5.00;1.40;;;19.60;99.90;;;;;;5013505;28;20244;-63
2022/06/03 14:10:07;;;;;;;4.97;1.20;;;19.60;99.90;;;;;;5028995;28;20205;-63
2022/06/03 14:12:38;;;;;;;3.33;1.33;;;19.60;99.90;;;;;;5010404;28;21010;-63
2022/06/03 14:15:12;;;;;;;14.18;2.70;;;19.50;99.90;;;;;;5017137;28;20263;-63
2022/06/03 14:17:53;;;;;;;3.38;1.63;;;19.40;99.90;;;;;;5016150;28;20204;-63
2022/06/03 14:20:26;;;;;;;4.72;1.45;;;19.40;99.90;;;;;;5002082;28;20195;-63
2022/06/03 14:23:01;;;;;;;3.35;1.48;;;19.50;99.90;;;;;;5018172;28;20228;-63
2022/06/03 14:25:34;;;;;;;2.05;1.20;;;19.50;99.90;;;;;;5021585;28;20373;-63
2022/06/03 14:28:09;;;;;;;2.40;1.20;;;19.60;99.90;;;;;;5011696;28;20278;-63
2022/06/03 14:30:50;;;;;;;5.03;1.42;;;19.70;99.90;;;;;;5017383;28;20227;-62
2022/06/03 14:33:20;;;;;;;3.28;1.63;;;19.60;99.90;;;;;;5022315;28;20204;-62
2022/06/03 14:35:51;;;;;;;3.13;1.48;;;19.40;99.90;;;;;;5017042;28;20232;-63
2022/06/03 14:38:24;;;;;;;2.53;1.25;;;19.40;99.90;;;;;;5026648;28;20223;-63
2022/06/03 14:40:54;;;;;;;3.20;1.70;;;19.40;99.90;;;;;;5021957;28;20209;-63